Atlantic Fairy — H3AX — position and weather

sailwx.info

Track history (hours):
 
Tides and Currents Weather Stations Pressure Air Temp Water Temp Dewpoint Dewpoint Depression Visibility Wind Speed Wind Dir Waves Ship Positions

Atlantic Fairy

Last reported at 2018-Jun-02 00:02 UTC. Time now 2018-Jun-22 03:16 UTC.
Position N 31°03' E 122°51'.
Warning: this ship's position is 20 days out of date.

Length 170 m; draft 6.4 m.

Type: Cargo ship. MMSI: 351796000.

Date/timePositionNaut miles runAvg speedWind from/ knotsBaromVisibWave heightAir tempDewpointWater temp
2018-Jun-02 00:02N 31°03' E 122°51'0 0.2
2018-Jun-01 23:41N 31°03' E 122°51'0 0.3
2018-Jun-01 23:29N 31°03' E 122°51'0 0.0
2018-Jun-01 22:50N 31°03' E 122°51'0 0.0
2018-Jun-01 22:29N 31°03' E 122°51'0 0.0
2018-Jun-01 21:53N 31°03' E 122°51'0 0.0
2018-Jun-01 21:20N 31°03' E 122°51'0 0.0
2018-Jun-01 20:59N 31°03' E 122°51'0 0.0
2018-Jun-01 20:29N 31°03' E 122°51'0 0.0
2018-Jun-01 19:59N 31°03' E 122°51'0 0.1
2018-Jun-01 19:29N 31°03' E 122°51'0 0.0
2018-Jun-01 18:53N 31°03' E 122°51'0 0.0
2018-Jun-01 18:23N 31°03' E 122°51'0 0.1
2018-Jun-01 17:47N 31°03' E 122°51'0 0.0
2018-Jun-01 12:35N 31°03' E 122°51'0 0.1
2018-Jun-01 12:29N 31°03' E 122°51'0 0.0
2018-Jun-01 11:59N 31°03' E 122°51'0 0.0
2018-May-30 22:14N 31°03' E 122°51'0 0.0
2018-May-30 21:59N 31°03' E 122°51'0 0.0
2018-May-30 20:41N 31°03' E 122°51'0 0.1
2018-May-30 20:29N 31°03' E 122°51'0 0.0
2018-May-30 16:59N 31°03' E 122°51'0 0.1
2018-May-30 15:11N 31°03' E 122°51'0 0.0
2018-May-30 12:41N 31°03' E 122°51'0 0.1
2018-May-30 12:05N 31°03' E 122°51'0 0.0
2018-May-30 11:53N 31°03' E 122°51'0 0.1
2018-May-30 11:26N 31°03' E 122°51'0 0.0
2018-May-30 10:17N 31°03' E 122°51'0 0.0
2018-May-30 09:41N 31°03' E 122°51'0 0.2
2018-May-30 09:23N 31°03' E 122°51'0 0.1
2018-May-30 08:59N 31°03' E 122°51'0 0.1
2018-May-30 08:23N 31°03' E 122°51'0 0.1
2018-May-30 03:41N 31°03' E 122°51'0 0.0
2018-May-29 20:57N 31°03' E 122°51'29 9.2
2018-May-29 17:49N 31°02' E 122°17'512.2
2018-May-29 17:22N 31°03' E 122°11'512.9
2018-May-29 17:00N 31°04' E 122°05'612.7
2018-May-29 16:31N 31°06' E 121°58'611.6
2018-May-29 16:00N 31°09' E 121°53'510.5
2018-May-29 15:30N 31°13' E 121°48'8111.3
2018-May-29 08:21N 32°01' E 120°32'412.2
2018-May-29 07:59N 32°02' E 120°27'  
2018-May-24 06:22N 31°46' E 121°03'5 9.3
2018-May-24 05:49N 31°43' E 121°08'410.1
2018-May-24 05:25N 31°41' E 121°11'410.6
2018-May-24 05:00N 31°38' E 121°15'611.2
2018-May-24 04:30N 31°33' E 121°20'611.5
2018-May-24 04:00N 31°30' E 121°25'510.7
2018-May-24 03:30N 31°26' E 121°29'5 7.7
2018-May-24 02:55N 31°24' E 121°34'11 9.2
2018-May-24 01:41N 31°18' E 121°46'210.4
2018-May-24 01:29N 31°18' E 121°48'610.7
2018-May-24 00:54N 31°16' E 121°55'410.7
2018-May-24 00:31N 31°15' E 121°60'510.1
2018-May-24 00:01N 31°14' E 122°05'4 8.3
2018-May-23 23:30N 31°12' E 122°09'4 8.0
2018-May-23 23:00N 31°09' E 122°13'510.4
2018-May-23 22:31N 31°06' E 122°18'510.2
2018-May-23 22:01N 31°06' E 122°24'3 6.8
2018-May-23 21:31N 31°07' E 122°28'3 6.3
2018-May-23 21:00N 31°07' E 122°32'710.7
2018-May-23 20:23N 31°09' E 122°39'1 1.5
2018-May-23 19:58N 31°10' E 122°39'0 0.1
2018-May-23 17:16N 31°09' E 122°40'0 0.2
2018-May-23 16:58N 31°09' E 122°40'  
Track history (hours):
 
Tides and Currents Weather Stations Pressure Air Temp Water Temp Dewpoint Dewpoint Depression Visibility Wind Speed Wind Dir Waves Ship Positions

Atlantic Fairy

Last reported at 2018-Jun-02 00:02 UTC. Time now 2018-Jun-22 03:16 UTC.
Position N 31°03' E 122°51'.
Warning: this ship's position is 20 days out of date.

Length 170 m; draft 6.4 m.

Type: Cargo ship. MMSI: 351796000.

Date/timePositionNaut miles runAvg speedWind from/ knotsBaromVisibWave heightAir tempDewpointWater temp
2018-Jun-02 00:02N 31°03' E 122°51'0 0.2
2018-Jun-01 23:41N 31°03' E 122°51'0 0.3
2018-Jun-01 23:29N 31°03' E 122°51'0 0.0
2018-Jun-01 22:50N 31°03' E 122°51'0 0.0
2018-Jun-01 22:29N 31°03' E 122°51'0 0.0
2018-Jun-01 21:53N 31°03' E 122°51'0 0.0
2018-Jun-01 21:20N 31°03' E 122°51'0 0.0
2018-Jun-01 20:59N 31°03' E 122°51'0 0.0
2018-Jun-01 20:29N 31°03' E 122°51'0 0.0
2018-Jun-01 19:59N 31°03' E 122°51'0 0.1
2018-Jun-01 19:29N 31°03' E 122°51'0 0.0
2018-Jun-01 18:53N 31°03' E 122°51'0 0.0
2018-Jun-01 18:23N 31°03' E 122°51'0 0.1
2018-Jun-01 17:47N 31°03' E 122°51'0 0.0
2018-Jun-01 12:35N 31°03' E 122°51'0 0.1
2018-Jun-01 12:29N 31°03' E 122°51'0 0.0
2018-Jun-01 11:59N 31°03' E 122°51'0 0.0
2018-May-30 22:14N 31°03' E 122°51'0 0.0
2018-May-30 21:59N 31°03' E 122°51'0 0.0
2018-May-30 20:41N 31°03' E 122°51'0 0.1
2018-May-30 20:29N 31°03' E 122°51'0 0.0
2018-May-30 16:59N 31°03' E 122°51'0 0.1
2018-May-30 15:11N 31°03' E 122°51'0 0.0
2018-May-30 12:41N 31°03' E 122°51'0 0.1
2018-May-30 12:05N 31°03' E 122°51'0 0.0
2018-May-30 11:53N 31°03' E 122°51'0 0.1
2018-May-30 11:26N 31°03' E 122°51'0 0.0
2018-May-30 10:17N 31°03' E 122°51'0 0.0
2018-May-30 09:41N 31°03' E 122°51'0 0.2
2018-May-30 09:23N 31°03' E 122°51'0 0.1
2018-May-30 08:59N 31°03' E 122°51'0 0.1
2018-May-30 08:23N 31°03' E 122°51'0 0.1
2018-May-30 03:41N 31°03' E 122°51'0 0.0
2018-May-29 20:57N 31°03' E 122°51'29 9.2
2018-May-29 17:49N 31°02' E 122°17'512.2
2018-May-29 17:22N 31°03' E 122°11'512.9
2018-May-29 17:00N 31°04' E 122°05'612.7
2018-May-29 16:31N 31°06' E 121°58'611.6
2018-May-29 16:00N 31°09' E 121°53'510.5
2018-May-29 15:30N 31°13' E 121°48'8111.3
2018-May-29 08:21N 32°01' E 120°32'412.2
2018-May-29 07:59N 32°02' E 120°27'  
2018-May-24 06:22N 31°46' E 121°03'5 9.3
2018-May-24 05:49N 31°43' E 121°08'410.1
2018-May-24 05:25N 31°41' E 121°11'410.6
2018-May-24 05:00N 31°38' E 121°15'611.2
2018-May-24 04:30N 31°33' E 121°20'611.5
2018-May-24 04:00N 31°30' E 121°25'510.7
2018-May-24 03:30N 31°26' E 121°29'5 7.7
2018-May-24 02:55N 31°24' E 121°34'11 9.2
2018-May-24 01:41N 31°18' E 121°46'210.4
2018-May-24 01:29N 31°18' E 121°48'610.7
2018-May-24 00:54N 31°16' E 121°55'410.7
2018-May-24 00:31N 31°15' E 121°60'510.1
2018-May-24 00:01N 31°14' E 122°05'4 8.3
2018-May-23 23:30N 31°12' E 122°09'4 8.0
2018-May-23 23:00N 31°09' E 122°13'510.4
2018-May-23 22:31N 31°06' E 122°18'510.2
2018-May-23 22:01N 31°06' E 122°24'3 6.8
2018-May-23 21:31N 31°07' E 122°28'3 6.3
2018-May-23 21:00N 31°07' E 122°32'710.7
2018-May-23 20:23N 31°09' E 122°39'1 1.5
2018-May-23 19:58N 31°10' E 122°39'0 0.1
2018-May-23 17:16N 31°09' E 122°40'0 0.2
2018-May-23 16:58N 31°09' E 122°40'  

Dump ship's entire track history